createdAt,value
2023-05-09T00:00:59.683Z,10.35352
2023-05-09T00:11:30.078Z,10.21252
2023-05-09T00:16:42.819Z,10.16403
2023-05-09T00:21:55.003Z,10.13062
2023-05-09T00:27:07.348Z,10.20229
2023-05-09T00:32:22.216Z,10.00073
2023-05-09T00:37:34.461Z,10.14594
2023-05-09T00:42:46.639Z,10.26852
2023-05-09T00:47:59.011Z,10.12305
2023-05-09T00:53:11.201Z,10.11588
2023-05-09T00:58:23.944Z,10.14349
2023-05-09T01:03:37.341Z,10.51176
2023-05-09T01:08:50.344Z,10.56866
2023-05-09T01:14:03.054Z,10.66531
2023-05-09T01:19:15.302Z,10.55617
2023-05-09T01:24:27.470Z,10.38626
2023-05-09T01:29:40.207Z,10.24367
2023-05-09T01:34:52.394Z,10.12355
2023-05-09T01:40:05.344Z,10.35861
2023-05-09T01:45:17.667Z,10.70294
2023-05-09T01:50:30.641Z,10.70384
2023-05-09T01:55:42.895Z,10.44617
2023-05-09T02:00:55.111Z,10.45183
2023-05-09T02:06:07.339Z,10.26257
2023-05-09T02:11:19.492Z,10.12386
2023-05-09T02:16:31.758Z,10.30853
2023-05-09T02:21:43.978Z,10.14897
2023-05-09T02:26:56.226Z,9.945465
2023-05-09T02:32:09.050Z,9.886017
2023-05-09T02:37:21.625Z,10.36967
2023-05-09T02:42:33.878Z,10.66988
2023-05-09T02:47:46.150Z,10.71501
2023-05-09T02:52:58.411Z,10.58571
2023-05-09T02:58:14.586Z,10.37682
2023-05-09T03:03:27.849Z,10.30884
2023-05-09T03:08:42.217Z,10.21136
2023-05-09T03:13:54.382Z,10.21112
2023-05-09T03:19:07.124Z,10.34035
2023-05-09T03:24:19.376Z,10.21626
2023-05-09T03:29:32.360Z,10.15013
2023-05-09T03:34:44.487Z,9.934586
2023-05-09T03:39:56.621Z,9.750214
2023-05-09T03:45:08.926Z,10.25397
2023-05-09T03:50:21.165Z,10.34171
2023-05-09T03:55:33.280Z,10.4828
2023-05-09T04:00:45.901Z,10.42798
2023-05-09T04:05:58.106Z,10.36336
2023-05-09T04:11:10.220Z,10.23857
2023-05-09T04:16:22.371Z,10.0665
2023-05-09T04:21:34.503Z,9.997604
2023-05-09T04:26:47.159Z,9.97113
2023-05-09T04:31:59.435Z,10.06679
2023-05-09T04:37:12.015Z,10.2952
2023-05-09T04:42:24.220Z,10.55988
2023-05-09T04:47:36.354Z,10.77032
2023-05-09T04:52:48.460Z,10.96892
2023-05-09T04:58:00.955Z,11.25542
2023-05-09T05:03:13.100Z,11.60875
2023-05-09T05:08:25.499Z,11.88541
2023-05-09T05:13:38.132Z,12.12729
2023-05-09T05:18:50.453Z,12.18817
2023-05-09T05:24:07.687Z,12.31857
2023-05-09T05:29:19.877Z,12.35962
2023-05-09T05:34:33.721Z,12.35936
2023-05-09T05:39:49.870Z,12.58966
2023-05-09T05:45:02.609Z,12.62883
2023-05-09T05:50:19.401Z,12.51164
2023-05-09T05:55:31.781Z,12.53665
2023-05-09T06:00:44.420Z,12.37971
2023-05-09T06:05:56.662Z,12.86946
2023-05-09T06:11:08.960Z,12.67734
2023-05-09T06:16:21.616Z,13.13147
2023-05-09T06:21:33.758Z,12.31465
2023-05-09T06:26:45.868Z,12.52248
2023-05-09T06:31:58.061Z,12.18785
2023-05-09T06:37:10.407Z,12.26256
2023-05-09T06:42:22.569Z,12.24541
2023-05-09T06:47:34.718Z,12.54453
2023-05-09T06:52:49.201Z,12.91512
2023-05-09T06:58:01.933Z,13.26273
2023-05-09T07:03:14.063Z,13.19429
2023-05-09T07:08:26.690Z,13.29791
2023-05-09T07:13:38.804Z,13.69522
2023-05-09T07:18:50.988Z,12.67955
2023-05-09T07:24:06.764Z,13.27631
2023-05-09T07:29:18.873Z,12.87695
2023-05-09T07:34:30.978Z,13.05029
2023-05-09T07:39:43.191Z,13.24278
2023-05-09T07:44:56.468Z,12.81526
2023-05-09T07:50:09.361Z,12.89539
2023-05-09T07:55:23.588Z,12.77815
2023-05-09T08:00:36.594Z,13.61583
2023-05-09T08:05:48.807Z,14.45023
2023-05-09T08:11:01.067Z,13.48882
2023-05-09T08:16:13.726Z,14.84923
2023-05-09T08:21:25.933Z,14.04408
2023-05-09T08:26:40.213Z,13.81853
2023-05-09T08:31:52.463Z,13.62892
2023-05-09T08:37:04.592Z,14.0193
2023-05-09T08:42:16.739Z,13.82751
2023-05-09T08:47:28.888Z,13.80565
2023-05-09T08:52:41.001Z,14.33987
2023-05-09T08:57:54.526Z,13.71957
2023-05-09T09:03:06.717Z,13.71114
2023-05-09T09:08:18.865Z,13.19954
2023-05-09T09:13:33.843Z,13.91441
2023-05-09T09:18:46.023Z,13.30096
2023-05-09T09:23:58.149Z,14.46834
2023-05-09T09:29:10.321Z,14.41342
2023-05-09T09:34:22.538Z,13.62683
2023-05-09T09:39:34.675Z,14.2829
2023-05-09T09:44:46.800Z,13.47623
2023-05-09T09:49:58.928Z,13.92137
2023-05-09T09:55:11.059Z,13.49457
2023-05-09T10:00:23.491Z,13.83087
2023-05-09T10:05:35.604Z,13.90924
2023-05-09T10:10:48.542Z,14.04382
2023-05-09T10:16:00.958Z,13.48311
2023-05-09T10:21:13.484Z,14.05254
2023-05-09T10:26:25.703Z,12.90149
2023-05-09T10:31:38.335Z,13.60153
2023-05-09T10:36:50.483Z,12.57233
2023-05-09T10:42:02.590Z,13.26437
2023-05-09T10:47:14.759Z,12.84248
2023-05-09T10:52:26.952Z,12.37473
2023-05-09T10:57:39.074Z,13.56142
2023-05-09T11:02:52.639Z,13.58943
2023-05-09T11:08:04.983Z,13.35506
2023-05-09T11:13:17.625Z,13.35796
2023-05-09T11:18:29.840Z,12.91632
2023-05-09T11:23:41.960Z,13.41223
2023-05-09T11:28:54.221Z,12.5034
2023-05-09T11:34:06.357Z,12.77504
2023-05-09T11:39:18.607Z,11.98311
2023-05-09T11:44:30.717Z,12.57735
2023-05-09T11:49:42.961Z,12.69208
2023-05-09T11:54:55.074Z,14.16209
2023-05-09T12:00:07.288Z,13.30295
2023-05-09T12:05:19.407Z,11.82762
2023-05-09T12:10:31.585Z,12.31091
2023-05-09T12:15:43.771Z,13.32286
2023-05-09T12:20:56.406Z,12.41644
2023-05-09T12:26:08.521Z,11.89516
2023-05-09T12:31:20.663Z,12.89862
2023-05-09T12:36:32.827Z,12.68623
2023-05-09T12:41:57.519Z,12.22742
2023-05-09T12:47:14.407Z,12.84795
2023-05-09T12:52:26.584Z,12.20932
2023-05-09T12:57:38.714Z,13.22839
2023-05-09T13:02:51.056Z,12.55551
2023-05-09T13:08:03.356Z,12.27744
2023-05-09T13:13:15.562Z,12.88106
2023-05-09T13:18:27.722Z,12.31767
2023-05-09T13:23:39.868Z,11.7106
2023-05-09T13:28:56.113Z,11.5925
2023-05-09T13:34:08.305Z,12.92781
2023-05-09T13:39:20.517Z,12.4005
2023-05-09T13:44:32.628Z,12.42218
2023-05-09T13:49:44.763Z,12.32938
2023-05-09T13:54:56.877Z,12.22289
2023-05-09T14:00:09.002Z,12.51379
2023-05-09T14:05:22.893Z,12.50784
2023-05-09T14:10:35.024Z,11.99724
2023-05-09T14:15:47.221Z,11.52994
2023-05-09T14:21:00.396Z,12.56999
2023-05-09T14:26:12.490Z,12.11653
2023-05-09T14:31:24.627Z,11.53487
2023-05-09T14:36:36.745Z,11.88104
2023-05-09T14:41:48.889Z,12.28264
2023-05-09T14:47:01.604Z,11.6725
2023-05-09T14:52:16.366Z,11.58971
2023-05-09T14:57:28.616Z,12.44614
2023-05-09T15:02:40.873Z,11.69337
2023-05-09T15:07:54.616Z,11.35194
2023-05-09T15:13:06.754Z,11.07904
2023-05-09T15:18:19.028Z,12.03391
2023-05-09T15:23:31.278Z,12.18056
2023-05-09T15:28:44.091Z,12.96791
2023-05-09T15:33:56.481Z,12.75488
2023-05-09T15:39:08.728Z,12.70032
2023-05-09T15:44:20.868Z,13.23584
2023-05-09T15:49:34.798Z,13.42213
2023-05-09T15:54:47.022Z,13.56874
2023-05-09T15:59:59.688Z,13.66312
2023-05-09T16:05:11.926Z,14.00345
2023-05-09T16:10:24.057Z,12.43146
2023-05-09T16:15:36.296Z,12.19566
2023-05-09T16:20:48.408Z,12.18494
2023-05-09T16:26:00.513Z,12.28748
2023-05-09T16:31:12.708Z,13.00398
2023-05-09T16:36:26.921Z,12.87766
2023-05-09T16:41:39.133Z,12.91846
2023-05-09T16:46:51.425Z,12.51329
2023-05-09T16:52:04.165Z,13.33559
2023-05-09T16:57:16.294Z,13.12764
2023-05-09T17:02:28.438Z,12.92822
2023-05-09T17:07:40.558Z,13.10945
2023-05-09T17:12:52.824Z,12.358
2023-05-09T17:18:05.080Z,12.63435
2023-05-09T17:23:17.376Z,12.88556
2023-05-09T17:28:29.612Z,13.04173
2023-05-09T17:33:41.800Z,13.01129
2023-05-09T17:38:54.053Z,12.6026
2023-05-09T17:44:06.226Z,12.67841
2023-05-09T17:49:18.426Z,12.52859
2023-05-09T17:54:30.693Z,12.34082
2023-05-09T17:59:51.881Z,12.30833
2023-05-09T18:05:04.052Z,12.20226
2023-05-09T18:10:16.361Z,12.23633
2023-05-09T18:15:28.779Z,11.91052
2023-05-09T18:20:40.981Z,12.14154
2023-05-09T18:25:53.664Z,11.97711
2023-05-09T18:31:05.785Z,11.98943
2023-05-09T18:36:17.972Z,11.84805
2023-05-09T18:41:30.073Z,11.95963
2023-05-09T18:46:44.038Z,11.79625
2023-05-09T18:51:56.388Z,11.93497
2023-05-09T18:57:08.695Z,11.75208
2023-05-09T19:02:20.826Z,12.04352
2023-05-09T19:07:32.929Z,11.87642
2023-05-09T19:12:45.158Z,11.92798
2023-05-09T19:17:57.391Z,11.88768
2023-05-09T19:23:09.501Z,12.00412
2023-05-09T19:28:21.660Z,11.80739
2023-05-09T19:33:33.836Z,12.04866
2023-05-09T19:38:45.950Z,12.05196
2023-05-09T19:43:58.118Z,11.81949
2023-05-09T19:49:10.235Z,11.88512
2023-05-09T19:54:22.410Z,12.09056
2023-05-09T19:59:35.136Z,11.87146
2023-05-09T20:04:52.422Z,12.07652
2023-05-09T20:10:05.194Z,11.98096
2023-05-09T20:15:18.208Z,12.07642
2023-05-09T20:20:30.701Z,11.58864
2023-05-09T20:25:42.935Z,11.82304
2023-05-09T20:30:55.042Z,11.33566
2023-05-09T20:36:07.240Z,11.75024
2023-05-09T20:41:19.381Z,11.53673
2023-05-09T20:46:31.542Z,11.71222
2023-05-09T20:51:43.774Z,11.56264
2023-05-09T20:56:55.907Z,11.30867
2023-05-09T21:02:08.087Z,11.34422
2023-05-09T21:07:20.304Z,11.56258
2023-05-09T21:12:32.548Z,11.36531
2023-05-09T21:17:44.850Z,11.56889
2023-05-09T21:22:57.245Z,11.4155
2023-05-09T21:28:09.481Z,11.46785
2023-05-09T21:33:21.741Z,11.73767
2023-05-09T21:38:33.855Z,11.78555
2023-05-09T21:43:46.151Z,11.66742
2023-05-09T21:48:58.267Z,11.42329
2023-05-09T21:54:10.481Z,11.28949
2023-05-09T21:59:22.663Z,11.3717
2023-05-09T22:04:34.777Z,11.33545
2023-05-09T22:09:47.346Z,11.44684
2023-05-09T22:14:59.839Z,11.53058
2023-05-09T22:20:11.948Z,11.57132
2023-05-09T22:25:24.293Z,11.76555
2023-05-09T22:30:36.732Z,11.91454
2023-05-09T22:35:48.980Z,11.91188
2023-05-09T22:41:01.471Z,11.92625
2023-05-09T22:46:14.295Z,11.8931
2023-05-09T22:51:26.459Z,11.90608
2023-05-09T22:56:38.623Z,11.88942
2023-05-09T23:01:50.737Z,11.90852
2023-05-09T23:07:02.852Z,11.93039
2023-05-09T23:12:14.952Z,11.92159
2023-05-09T23:17:27.716Z,11.88893
2023-05-09T23:22:39.919Z,11.90221
2023-05-09T23:27:52.028Z,11.85243
2023-05-09T23:33:04.208Z,11.83691
2023-05-09T23:38:16.358Z,11.80389
2023-05-09T23:43:28.468Z,11.76875
2023-05-09T23:48:40.589Z,11.78036
2023-05-09T23:53:52.731Z,11.81839
2023-05-09T23:59:04.844Z,11.82088
